Time;durP1;ratioP1;P1;durP2;ratioP2;P2;SDS_P1;SDS_P2;PMS_P1;PMS_P2;Temp;Humidity;BMP_temperature;BMP_pressure;BME280_temperature;BME280_humidity;BME280_pressure;Samples;Min_cycle;Max_cycle;Signal;HPM_P1;HPM_P2
2023/04/12 00:00:08;;;;;;;13.13;8.35;;;;;;;;;;5046058;28;20064;-59
2023/04/12 00:02:36;;;;;;;17.17;11.50;;;7.90;99.90;;;;;;5042327;28;20040;-58
2023/04/12 00:05:01;;;;;;;17.98;10.95;;;8.00;99.90;;;;;;5048139;28;20041;-59
2023/04/12 00:07:28;;;;;;;15.75;9.88;;;;;;;;;;5026978;28;20034;-58
2023/04/12 00:09:55;;;;;;;16.52;9.70;;;;;;;;;;5045249;28;20045;-58
2023/04/12 00:12:21;;;;;;;18.27;10.80;;;;;;;;;;5048534;28;20044;-58
2023/04/12 00:14:47;;;;;;;18.25;10.93;;;;;;;;;;5053335;28;20137;-57
2023/04/12 00:17:13;;;;;;;17.63;11.40;;;;;;;;;;5048402;28;20064;-56
2023/04/12 00:19:40;;;;;;;11.13;6.93;;;;;;;;;;5055796;28;20039;-59
2023/04/12 00:22:10;;;;;;;13.02;9.15;;;;;;;;;;5048311;28;20098;-56
2023/04/12 00:24:38;;;;;;;15.73;8.52;;;;;;;;;;5052418;28;20041;-57
2023/04/12 00:27:05;;;;;;;10.07;4.85;;;8.30;99.90;;;;;;5051858;28;20064;-59
2023/04/12 00:29:31;;;;;;;12.00;3.97;;;8.30;99.90;;;;;;5051533;28;20040;-57
2023/04/12 00:31:58;;;;;;;15.07;7.13;;;8.10;99.90;;;;;;5052695;28;20052;-57
2023/04/12 00:34:24;;;;;;;15.32;7.05;;;;;;;;;;5048716;28;20218;-56
2023/04/12 00:36:50;;;;;;;11.07;4.38;;;;;;;;;;5044207;28;20045;-58
2023/04/12 00:39:16;;;;;;;11.02;4.88;;;;;;;;;;5052018;28;20059;-57
2023/04/12 00:41:42;;;;;;;13.93;4.28;;;8.40;99.90;;;;;;5050751;28;20041;-58
2023/04/12 00:44:08;;;;;;;8.82;3.53;;;;;;;;;;5051998;28;20044;-58
2023/04/12 00:46:35;;;;;;;11.68;3.30;;;;;;;;;;5052578;28;20036;-58
2023/04/12 00:49:02;;;;;;;11.25;3.03;;;;;;;;;;5051888;28;20040;-58
2023/04/12 00:51:32;;;;;;;12.10;3.47;;;8.70;99.90;;;;;;5043994;28;20053;-56
2023/04/12 00:53:59;;;;;;;10.52;3.90;;;;;;;;;;5051944;28;20067;-57
2023/04/12 00:56:27;;;;;;;11.70;5.30;;;;;;;;;;5079814;22;20044;-64
2023/04/12 00:58:56;;;;;;;13.63;6.68;;;;;;;;;;5049050;28;20036;-65
2023/04/12 01:01:22;;;;;;;15.10;7.20;;;;;;;;;;5072313;28;20144;-65
2023/04/12 01:03:49;;;;;;;19.15;8.05;;;;;;;;;;5050173;28;20509;-65
2023/04/12 01:06:15;;;;;;;13.20;6.88;;;;;;;;;;5067645;28;20482;-65
2023/04/12 01:08:54;;;;;;;11.15;5.78;;;8.30;99.90;;;;;;5071527;28;20037;-65
2023/04/12 01:11:28;;;;;;;10.95;5.65;;;;;;;;;;5062422;28;20052;-65
2023/04/12 01:13:58;;;;;;;8.52;4.13;;;;;;;;;;5069938;28;20066;-65
2023/04/12 01:16:28;;;;;;;10.25;5.00;;;;;;;;;;5066988;28;20068;-65
2023/04/12 01:18:58;;;;;;;8.02;3.38;;;;;;;;;;5066911;22;20060;-58
2023/04/12 01:21:44;;;;;;;13.80;4.05;;;8.50;1.00;;;;;;5050848;28;20041;-58
2023/04/12 01:24:47;;;;;;;13.23;4.18;;;8.20;1.00;;;;;;5045492;28;20126;-58
2023/04/12 01:27:28;;;;;;;14.00;4.90;;;;;;;;;;5048978;28;20052;-59
2023/04/12 01:29:56;;;;;;;9.57;3.72;;;;;;;;;;5051638;28;20044;-58
2023/04/12 01:32:22;;;;;;;10.52;3.83;;;;;;;;;;5049707;28;20083;-57
2023/04/12 01:34:49;;;;;;;10.63;4.55;;;;;;;;;;5049481;28;20044;-58
2023/04/12 01:37:18;;;;;;;8.55;4.20;;;;;;;;;;5032988;28;20041;-58
2023/04/12 01:39:44;;;;;;;8.82;4.00;;;;;;;;;;5055105;28;20059;-57
2023/04/12 01:42:10;;;;;;;10.63;4.10;;;;;;;;;;5049040;28;20049;-57
2023/04/12 01:44:36;;;;;;;9.93;4.45;;;;;;;;;;5059356;28;20105;-58
2023/04/12 01:47:03;;;;;;;7.80;3.28;;;;;;;;;;5053783;28;20128;-59
2023/04/12 01:49:38;;;;;;;10.18;3.58;;;7.80;99.90;;;;;;5042814;28;20029;-61
2023/04/12 01:52:09;;;;;;;9.15;3.35;;;;;;;;;;5050181;28;20045;-58
2023/04/12 01:54:37;;;;;;;8.57;3.03;;;;;;;;;;5050617;28;20044;-58
2023/04/12 01:57:04;;;;;;;9.75;3.85;;;;;;;;;;5049447;28;20090;-58
2023/04/12 01:59:40;;;;;;;6.47;2.63;;;;;;;;;;5041169;28;20041;-58
2023/04/12 02:02:10;;;;;;;9.30;3.17;;;;;;;;;;5050289;28;20128;-58
2023/04/12 02:04:37;;;;;;;9.25;2.92;;;;;;;;;;5050395;28;20115;-59
2023/04/12 02:07:04;;;;;;;8.63;2.72;;;;;;;;;;5050393;28;20041;-58
2023/04/12 02:09:30;;;;;;;9.68;2.92;;;;;;;;;;5049375;28;20112;-57
2023/04/12 02:11:56;;;;;;;7.57;2.60;;;;;;;;;;5050631;28;20037;-56
2023/04/12 02:14:22;;;;;;;7.55;2.58;;;;;;;;;;5052947;28;20135;-56
2023/04/12 02:16:49;;;;;;;7.68;2.53;;;;;;;;;;5052719;28;20048;-57
2023/04/12 02:19:15;;;;;;;8.38;3.08;;;8.60;99.90;;;;;;5048438;28;20040;-58
2023/04/12 02:21:44;;;;;;;7.25;2.80;;;8.90;99.90;;;;;;5050461;28;20394;-58
2023/04/12 02:24:11;;;;;;;11.02;2.95;;;;;;;;;;5049538;28;20108;-58
2023/04/12 02:26:37;;;;;;;9.02;2.90;;;;;;;;;;5050310;28;20127;-56
2023/04/12 02:29:06;;;;;;;7.60;2.58;;;8.60;99.90;;;;;;5050206;28;20048;-57
2023/04/12 02:31:34;;;;;;;7.82;2.28;;;8.60;99.90;;;;;;5042066;28;20048;-58
2023/04/12 02:34:00;;;;;;;12.00;3.95;;;8.60;99.90;;;;;;5049349;28;20102;-58
2023/04/12 02:36:26;;;;;;;14.05;3.22;;;8.60;99.90;;;;;;5049848;28;20047;-58
2023/04/12 02:38:51;;;;;;;10.82;2.92;;;8.50;99.90;;;;;;5056489;28;20040;-57
2023/04/12 02:41:20;;;;;;;8.20;2.33;;;;;;;;;;5051465;28;20132;-57
2023/04/12 02:43:46;;;;;;;8.50;3.10;;;8.70;99.90;;;;;;5048474;28;20044;-56
2023/04/12 02:46:20;;;;;;;8.93;2.50;;;;;;;;;;5047818;28;20461;-58
2023/04/12 02:48:47;;;;;;;7.93;3.22;;;;;;;;;;5055830;28;20047;-55
2023/04/12 02:51:13;;;;;;;7.22;2.85;;;;;;;;;;5052609;28;20041;-57
2023/04/12 02:53:39;;;;;;;10.15;3.13;;;;;;;;;;5048013;28;20124;-56
2023/04/12 02:56:05;;;;;;;6.60;2.70;;;;;;;;;;5048540;28;20045;-57
2023/04/12 02:58:32;;;;;;;8.68;2.53;;;8.80;99.90;;;;;;5049184;28;20072;-57
2023/04/12 03:00:59;;;;;;;9.95;3.13;;;;;;;;;;5048344;28;20045;-58
2023/04/12 03:03:25;;;;;;;8.68;3.00;;;;;;;;;;5051396;28;20041;-58
2023/04/12 03:05:54;;;;;;;7.43;2.72;;;8.50;99.90;;;;;;5054326;28;20174;-58
2023/04/12 03:08:20;;;;;;;7.53;3.78;;;;;;;;;;5049035;28;20036;-58
2023/04/12 03:10:46;;;;;;;10.75;2.83;;;8.70;99.90;;;;;;5049691;28;20052;-58
2023/04/12 03:13:12;;;;;;;6.70;3.30;;;;;;;;;;5048913;28;20418;-60
2023/04/12 03:15:38;;;;;;;7.50;2.78;;;8.80;99.90;;;;;;5049048;28;20033;-57
2023/04/12 03:18:04;;;;;;;7.55;2.58;;;;;;;;;;5053930;28;20048;-56
2023/04/12 03:20:30;;;;;;;9.90;3.20;;;;;;;;;;5051771;28;20039;-57
2023/04/12 03:22:56;;;;;;;9.20;2.92;;;;;;;;;;5054265;28;20041;-58
2023/04/12 03:25:22;;;;;;;7.30;2.90;;;;;;;;;;5048886;28;20139;-57
2023/04/12 03:27:48;;;;;;;8.75;2.70;;;;;;;;;;5049220;28;20040;-59
2023/04/12 03:30:14;;;;;;;9.32;2.83;;;;;;;;;;5048860;28;20045;-57
2023/04/12 03:32:41;;;;;;;8.80;3.25;;;;;;;;;;5057551;28;20041;-57
2023/04/12 03:35:07;;;;;;;12.98;3.30;;;;;;;;;;5049338;28;20051;-58
2023/04/12 03:37:34;;;;;;;11.38;2.92;;;;;;;;;;5042177;28;20102;-57
2023/04/12 03:40:00;;;;;;;5.70;2.83;;;;;;;;;;5039280;28;20064;-58
2023/04/12 03:42:27;;;;;;;6.28;2.42;;;;;;;;;;5048652;28;20068;-58
2023/04/12 03:44:53;;;;;;;10.65;2.97;;;;;;;;;;5048635;28;20576;-59
2023/04/12 03:47:20;;;;;;;7.13;3.38;;;;;;;;;;5049421;28;20094;-57
2023/04/12 03:49:46;;;;;;;7.53;2.90;;;8.60;1.00;;;;;;5049061;28;20072;-57
2023/04/12 03:52:12;;;;;;;6.70;2.35;;;8.40;1.00;;;;;;5048995;28;20491;-56
2023/04/12 03:54:38;;;;;;;6.75;2.60;;;;;;;;;;5055878;28;20076;-58
2023/04/12 03:57:04;;;;;;;10.77;3.83;;;;;;;;;;5048571;28;20418;-59
2023/04/12 03:59:31;;;;;;;8.27;3.33;;;;;;;;;;5050804;28;20064;-57
2023/04/12 04:01:59;;;;;;;8.43;3.67;;;8.40;78.50;;;;;;5052981;28;20045;-59
2023/04/12 04:04:26;;;;;;;7.57;3.53;;;8.40;99.90;;;;;;5059460;28;20052;-59
2023/04/12 04:06:51;;;;;;;9.02;3.28;;;8.40;99.90;;;;;;5060000;28;20036;-57
2023/04/12 04:11:51;;;;;;;6.47;3.10;;;;;;;;;;5018092;28;20506;-66
2023/04/12 04:14:17;;;;;;;12.05;3.83;;;;;;;;;;5013692;28;20056;-66
2023/04/12 04:16:43;;;;;;;8.93;3.67;;;;;;;;;;5014473;28;20041;-66
2023/04/12 04:19:09;;;;;;;10.00;3.47;;;;;;;;;;5023035;28;20034;-66
2023/04/12 04:21:35;;;;;;;9.75;3.78;;;;;;;;;;5029619;28;20056;-67
2023/04/12 04:24:02;;;;;;;7.10;3.22;;;;;;;;;;5025618;28;20045;-63
2023/04/12 04:26:32;;;;;;;11.93;3.75;;;;;;;;;;4995088;28;20049;-63
2023/04/12 04:29:02;;;;;;;8.63;3.22;;;8.30;99.90;;;;;;5020189;28;20042;-64
2023/04/12 04:31:35;;;;;;;11.70;4.00;;;;;;;;;;5003577;28;20049;-63
2023/04/12 04:34:04;;;;;;;9.48;3.55;;;8.10;1.00;;;;;;5003116;28;20054;-65
2023/04/12 04:36:32;;;;;;;11.95;4.20;;;;;;;;;;5028889;28;20057;-64
2023/04/12 04:38:58;;;;;;;10.75;4.18;;;;;;;;;;5023277;28;20041;-64
2023/04/12 04:41:25;;;;;;;8.88;3.33;;;;;;;;;;5029917;28;20038;-64
2023/04/12 04:43:52;;;;;;;7.97;2.95;;;;;;;;;;5008906;28;20045;-63
2023/04/12 04:46:20;;;;;;;7.93;3.88;;;;;;;;;;5097034;22;20044;-66
2023/04/12 04:48:54;;;;;;;8.63;2.63;;;8.20;99.90;;;;;;5044624;28;20051;-66
2023/04/12 04:51:20;;;;;;;9.27;3.88;;;;;;;;;;5056931;28;20047;-66
2023/04/12 04:53:46;;;;;;;7.25;3.28;;;;;;;;;;5051973;28;20045;-67
2023/04/12 04:56:12;;;;;;;7.18;3.85;;;;;;;;;;5042875;28;20033;-66
2023/04/12 04:58:38;;;;;;;10.02;3.65;;;;;;;;;;5051792;28;20401;-66
2023/04/12 05:01:04;;;;;;;10.25;3.45;;;;;;;;;;5037949;28;20050;-66
2023/04/12 05:03:32;;;;;;;8.00;3.35;;;;;;;;;;5049321;28;21817;-67
2023/04/12 05:05:59;;;;;;;7.78;3.58;;;;;;;;;;5045663;28;20041;-67
2023/04/12 05:08:25;;;;;;;7.68;3.33;;;;;;;;;;5044282;28;20037;-67
2023/04/12 05:10:52;;;;;;;7.55;3.45;;;;;;;;;;5059115;28;20068;-67
2023/04/12 05:13:19;;;;;;;8.55;3.30;;;;;;;;;;5033545;28;20480;-66
2023/04/12 05:15:45;;;;;;;8.38;3.05;;;;;;;;;;5044441;28;20406;-67
2023/04/12 05:18:12;;;;;;;8.02;3.63;;;8.10;99.90;;;;;;5038065;28;20301;-67
2023/04/12 05:20:38;;;;;;;8.93;3.55;;;;;;;;;;5028677;28;20049;-68
2023/04/12 05:23:04;;;;;;;9.98;3.60;;;;;;;;;;5046921;28;20041;-68
2023/04/12 05:25:30;;;;;;;11.52;4.53;;;;;;;;;;5039164;28;20046;-68
2023/04/12 05:27:56;;;;;;;9.15;3.30;;;;;;;;;;5051575;28;20051;-67
2023/04/12 05:30:22;;;;;;;7.90;3.75;;;;;;;;;;5052374;28;20055;-67
2023/04/12 05:32:48;;;;;;;10.15;4.15;;;;;;;;;;5038157;28;20053;-67
2023/04/12 05:35:14;;;;;;;9.57;4.13;;;;;;;;;;5054437;28;20036;-68
2023/04/12 05:37:40;;;;;;;11.85;4.40;;;;;;;;;;5051635;28;20032;-67
2023/04/12 05:40:08;;;;;;;8.32;4.63;;;8.00;99.90;;;;;;5049200;28;20116;-67
2023/04/12 05:42:38;;;;;;;10.27;4.75;;;;;;;;;;5045872;28;20437;-67
2023/04/12 05:45:05;;;;;;;8.07;4.10;;;;;;;;;;5051399;28;20043;-67
2023/04/12 05:47:31;;;;;;;9.75;5.25;;;;;;;;;;5049726;28;20049;-68
2023/04/12 05:49:57;;;;;;;12.70;6.20;;;;;;;;;;5050983;28;20040;-68
2023/04/12 05:52:23;;;;;;;9.88;5.15;;;;;;;;;;5029007;28;20481;-68
2023/04/12 05:54:49;;;;;;;8.23;5.13;;;;;;;;;;5029290;28;20046;-68
2023/04/12 05:57:16;;;;;;;10.90;4.75;;;;;;;;;;5040981;28;20094;-68
2023/04/12 05:59:42;;;;;;;11.45;4.85;;;;;;;;;;5045559;28;20045;-70
2023/04/12 06:02:09;;;;;;;12.20;6.15;;;8.20;99.90;;;;;;5056104;28;20041;-72
2023/04/12 06:04:37;;;;;;;14.40;6.72;;;;;;;;;;5039495;28;20124;-71
2023/04/12 06:07:04;;;;;;;14.95;6.60;;;8.00;99.90;;;;;;5035036;28;20049;-71
2023/04/12 06:09:30;;;;;;;12.30;6.97;;;;;;;;;;5042200;28;20490;-70
2023/04/12 06:11:56;;;;;;;12.48;7.45;;;;;;;;;;5045481;28;20045;-71
2023/04/12 06:14:22;;;;;;;12.30;6.38;;;;;;;;;;5042106;28;20509;-73
2023/04/12 06:16:48;;;;;;;13.10;7.72;;;;;;;;;;5041909;28;20044;-73
2023/04/12 06:19:14;;;;;;;15.43;7.78;;;;;;;;;;5062561;28;20048;-71
2023/04/12 06:21:41;;;;;;;11.73;6.72;;;;;;;;;;5043917;28;20418;-76
2023/04/12 06:24:07;;;;;;;11.82;7.53;;;;;;;;;;5029293;28;20418;-75
2023/04/12 06:26:33;;;;;;;11.77;7.00;;;;;;;;;;5049302;28;20041;-76
2023/04/12 06:28:59;;;;;;;11.10;7.82;;;;;;;;;;5046586;28;20060;-74
2023/04/12 06:31:25;;;;;;;16.80;9.50;;;;;;;;;;5037996;28;20499;-72
2023/04/12 06:33:51;;;;;;;15.68;7.47;;;;;;;;;;5051182;28;20118;-73
2023/04/12 06:36:17;;;;;;;11.75;7.93;;;;;;;;;;5043590;28;20120;-73
2023/04/12 06:38:43;;;;;;;13.65;7.93;;;;;;;;;;5050043;28;20122;-73
2023/04/12 06:41:10;;;;;;;11.82;7.60;;;;;;;;;;5046905;28;20081;-73
2023/04/12 06:43:36;;;;;;;12.32;7.95;;;;;;;;;;5047667;28;20482;-73
2023/04/12 06:46:02;;;;;;;14.60;7.90;;;;;;;;;;5045116;28;20041;-75
2023/04/12 06:48:28;;;;;;;13.75;9.27;;;;;;;;;;5056480;28;20037;-75
2023/04/12 06:50:54;;;;;;;11.93;7.13;;;8.00;1.00;;;;;;5053689;28;20040;-73
2023/04/12 06:53:20;;;;;;;14.63;7.07;;;;;;;;;;5038966;28;20107;-72
2023/04/12 06:55:47;;;;;;;14.15;7.72;;;8.70;1.00;;;;;;5048572;28;20491;-73
2023/04/12 06:58:13;;;;;;;11.80;6.68;;;8.10;1.00;;;;;;5028411;28;20136;-76
2023/04/12 07:00:39;;;;;;;11.43;6.80;;;;;;;;;;5049630;28;20115;-77
2023/04/12 07:03:05;;;;;;;10.35;6.55;;;;;;;;;;5041675;28;20037;-73
2023/04/12 07:05:31;;;;;;;11.48;6.57;;;;;;;;;;5030555;28;20156;-72
2023/04/12 07:07:57;;;;;;;11.75;6.25;;;;;;;;;;5040521;28;20167;-72
2023/04/12 07:10:23;;;;;;;12.30;5.70;;;;;;;;;;5045513;28;20038;-72
2023/04/12 07:12:50;;;;;;;11.75;5.70;;;;;;;;;;5038817;28;20106;-72
2023/04/12 07:15:16;;;;;;;11.77;6.38;;;;;;;;;;5039856;28;20049;-74
2023/04/12 07:17:42;;;;;;;10.45;6.05;;;;;;;;;;5031712;28;20045;-74
2023/04/12 07:20:09;;;;;;;10.48;6.70;;;;;;;;;;5059643;28;20052;-71
2023/04/12 07:22:35;;;;;;;10.00;5.55;;;;;;;;;;5060269;28;20076;-72
2023/04/12 07:25:01;;;;;;;9.70;5.68;;;;;;;;;;5047251;28;20041;-72
2023/04/12 07:27:26;;;;;;;8.70;5.28;;;8.20;18.00;;;;;;5046880;28;20033;-70
2023/04/12 07:29:53;;;;;;;10.10;5.25;;;;;;;;;;5048849;28;20048;-69
2023/04/12 07:32:19;;;;;;;10.55;4.95;;;;;;;;;;5040710;28;20103;-69
2023/04/12 07:34:45;;;;;;;7.60;4.70;;;8.20;50.20;;;;;;5040696;28;20032;-70
2023/04/12 07:37:11;;;;;;;8.85;4.88;;;;;;;;;;5045476;28;20040;-71
2023/04/12 07:39:39;;;;;;;9.60;5.25;;;;;;;;;;5037160;28;20506;-73
2023/04/12 07:42:05;;;;;;;8.20;4.70;;;;;;;;;;5047884;28;20429;-73
2023/04/12 07:44:32;;;;;;;8.80;4.90;;;8.20;58.90;;;;;;5045010;28;20538;-73
2023/04/12 07:46:58;;;;;;;8.45;5.15;;;8.30;91.00;;;;;;5044837;28;20056;-72
2023/04/12 07:49:24;;;;;;;8.70;4.97;;;;;;;;;;5047049;28;20037;-72
2023/04/12 07:51:50;;;;;;;9.90;4.45;;;8.20;99.90;;;;;;5052734;28;20047;-74
2023/04/12 07:54:16;;;;;;;7.97;4.20;;;;;;;;;;5053013;28;20136;-72
2023/04/12 07:56:56;;;;;;;8.50;4.63;;;;;;;;;;5048490;28;20043;-72
2023/04/12 07:59:22;;;;;;;10.00;5.60;;;;;;;;;;5050056;28;20033;-74
2023/04/12 08:01:48;;;;;;;9.00;4.50;;;;;;;;;;5047249;28;20118;-71
2023/04/12 08:04:14;;;;;;;8.27;4.20;;;;;;;;;;5042936;28;20112;-74
2023/04/12 08:06:41;;;;;;;9.82;4.70;;;;;;;;;;5027497;28;20661;-72
2023/04/12 08:09:06;;;;;;;9.85;4.30;;;8.40;99.90;;;;;;5042675;28;20056;-73
2023/04/12 08:11:34;;;;;;;8.13;4.47;;;;;;;;;;5047374;28;20118;-75
2023/04/12 08:14:00;;;;;;;7.32;4.68;;;;;;;;;;5046798;28;20116;-73
2023/04/12 08:16:26;;;;;;;9.55;5.03;;;;;;;;;;5038190;28;20538;-78
2023/04/12 08:18:52;;;;;;;8.63;4.32;;;;;;;;;;5038322;28;20540;-74
2023/04/12 08:21:18;;;;;;;8.48;4.22;;;8.30;99.90;;;;;;5039678;28;20041;-75
2023/04/12 08:23:45;;;;;;;11.00;5.30;;;;;;;;;;5043204;28;20056;-78
2023/04/12 08:26:11;;;;;;;9.23;4.10;;;;;;;;;;5041641;28;20084;-76
2023/04/12 08:28:37;;;;;;;10.77;4.55;;;;;;;;;;5019306;28;20037;-77
2023/04/12 08:31:03;;;;;;;10.38;5.22;;;;;;;;;;5044664;28;20063;-72
2023/04/12 08:33:30;;;;;;;10.60;4.22;;;;;;;;;;5055985;28;20089;-73
2023/04/12 08:35:56;;;;;;;10.02;3.80;;;;;;;;;;5051079;28;20387;-72
2023/04/12 08:38:22;;;;;;;9.27;3.67;;;;;;;;;;5046626;28;20041;-73
2023/04/12 08:40:47;;;;;;;11.13;4.93;;;8.70;99.90;;;;;;5059023;28;20045;-72
2023/04/12 08:43:14;;;;;;;8.77;5.60;;;;;;;;;;5051491;28;20113;-73
2023/04/12 08:45:41;;;;;;;10.32;5.75;;;;;;;;;;5054378;28;20040;-72
2023/04/12 08:48:07;;;;;;;10.98;4.78;;;;;;;;;;5054844;28;20381;-70
2023/04/12 08:50:33;;;;;;;10.02;5.35;;;8.80;99.90;;;;;;5039179;28;20118;-71
2023/04/12 08:52:59;;;;;;;10.93;5.75;;;;;;;;;;5042671;28;20065;-71
2023/04/12 08:55:25;;;;;;;11.43;5.60;;;;;;;;;;5050271;28;20049;-72
2023/04/12 08:57:55;;;;;;;13.63;6.57;;;;;;;;;;5050706;28;20084;-70
2023/04/12 09:00:22;;;;;;;11.90;5.63;;;;;;;;;;5045393;28;20045;-70
2023/04/12 09:02:48;;;;;;;10.23;4.75;;;;;;;;;;5040657;28;20049;-69
2023/04/12 09:05:14;;;;;;;11.18;5.20;;;9.70;99.90;;;;;;5037453;28;20382;-71
2023/04/12 09:07:40;;;;;;;12.23;5.40;;;;;;;;;;5041733;28;20041;-70
2023/04/12 09:10:06;;;;;;;12.23;4.60;;;10.00;99.90;;;;;;5044391;28;20030;-71
2023/04/12 09:12:32;;;;;;;15.32;3.45;;;;;;;;;;5042416;28;20627;-70
2023/04/12 09:15:12;;;;;;;9.90;3.50;;;;;;;;;;5040539;28;20053;-70
2023/04/12 09:17:39;;;;;;;11.63;3.58;;;;;;;;;;5037918;28;20033;-67
2023/04/12 09:20:08;;;;;;;10.80;3.30;;;;;;;;;;5049475;28;20041;-70
2023/04/12 09:22:35;;;;;;;11.35;2.70;;;;;;;;;;5047599;28;20371;-71
2023/04/12 09:25:01;;;;;;;10.73;2.70;;;;;;;;;;5046529;28;20037;-72
2023/04/12 09:27:28;;;;;;;21.75;3.58;;;10.20;1.00;;;;;;5045004;28;20041;-68
2023/04/12 09:30:10;;;;;;;11.75;2.40;;;9.80;1.00;;;;;;5044337;28;20183;-69
2023/04/12 09:32:36;;;;;;;11.82;3.67;;;10.30;99.90;;;;;;5047714;28;20116;-69
2023/04/12 09:35:04;;;;;;;8.70;1.92;;;;;;;;;;5042041;28;20043;-72
2023/04/12 09:37:30;;;;;;;10.63;2.55;;;;;;;;;;5054746;28;20042;-70
2023/04/12 09:40:04;;;;;;;11.95;2.38;;;;;;;;;;5034744;28;20049;-70
2023/04/12 09:42:30;;;;;;;9.93;2.05;;;;;;;;;;5045352;28;20568;-72
2023/04/12 09:44:57;;;;;;;10.57;2.17;;;10.50;99.90;;;;;;5043412;28;20045;-71
2023/04/12 09:47:41;;;;;;;9.80;2.78;;;10.80;99.90;;;;;;5042785;28;20037;-70
2023/04/12 09:50:08;;;;;;;9.63;2.33;;;;;;;;;;5049786;28;20037;-68
2023/04/12 09:52:39;;;;;;;11.93;2.90;;;;;;;;;;5047074;28;20044;-70
2023/04/12 09:55:09;;;;;;;15.13;2.90;;;11.00;99.90;;;;;;5041915;28;20033;-68
2023/04/12 09:57:40;;;;;;;11.75;3.15;;;;;;;;;;5041197;28;20442;-68
2023/04/12 10:00:16;;;;;;;12.32;2.70;;;;;;;;;;5046636;28;20033;-68
2023/04/12 10:02:42;;;;;;;8.65;2.60;;;;;;;;;;5032016;28;20544;-68
2023/04/12 10:05:15;;;;;;;9.68;2.38;;;12.00;15.80;;;;;;5053758;28;20041;-68
2023/04/12 10:07:41;;;;;;;14.88;3.28;;;;;;;;;;5041026;28;20035;-68
2023/04/12 10:10:08;;;;;;;8.43;2.75;;;;;;;;;;5044032;28;20045;-68
2023/04/12 10:12:38;;;;;;;11.90;2.53;;;;;;;;;;5044238;28;20045;-67
2023/04/12 10:15:12;;;;;;;11.63;3.65;;;10.60;1.00;;;;;;5038760;28;20047;-68
2023/04/12 10:17:46;;;;;;;11.52;2.40;;;11.70;4.70;;;;;;5035966;28;20090;-68
2023/04/12 10:20:12;;;;;;;7.63;2.15;;;;;;;;;;5042064;28;20434;-68
2023/04/12 10:22:48;;;;;;;7.10;2.10;;;;;;;;;;5034810;28;20045;-67
2023/04/12 10:25:16;;;;;;;7.45;2.03;;;;;;;;;;5038696;28;20045;-67
2023/04/12 10:27:42;;;;;;;10.45;2.17;;;;;;;;;;5041353;28;20044;-67
2023/04/12 10:30:19;;;;;;;13.05;2.20;;;;;;;;;;5046995;28;20057;-67
2023/04/12 10:32:45;;;;;;;9.02;2.65;;;11.80;1.00;;;;;;5052005;28;20037;-68
2023/04/12 10:35:11;;;;;;;8.13;2.03;;;11.90;99.90;;;;;;5047084;28;20048;-67
2023/04/12 10:37:56;;;;;;;7.82;2.28;;;;;;;;;;5030734;28;20045;-68
2023/04/12 10:40:21;;;;;;;;;;;11.20;99.90;;;;;;5038811;28;20041;-67
2023/04/12 10:42:47;;;;;;;12.38;2.13;;;;;;;;;;5047748;28;20364;-68
2023/04/12 10:45:23;;;;;;;8.15;2.10;;;;;;;;;;5061756;22;20041;-68
2023/04/12 10:47:48;;;;;;;9.20;2.45;;;11.90;99.90;;;;;;5068179;28;20131;-68
2023/04/12 10:50:28;;;;;;;11.93;2.55;;;;;;;;;;5065524;28;20115;-67
2023/04/12 10:53:14;;;;;;;13.43;3.17;;;;;;;;;;5064396;28;20051;-66
2023/04/12 10:55:41;;;;;;;9.70;1.98;;;;;;;;;;5050112;28;20121;-67
2023/04/12 10:58:07;;;;;;;12.10;2.30;;;11.60;99.90;;;;;;5058612;28;20182;-67
2023/04/12 11:01:05;;;;;;;9.77;2.15;;;12.00;99.90;;;;;;5061683;28;20528;-67
2023/04/12 11:03:31;;;;;;;7.63;2.28;;;11.70;99.90;;;;;;5051097;28;20049;-67
2023/04/12 11:06:02;;;;;;;13.88;2.97;;;12.00;99.90;;;;;;5055865;28;20049;-67
2023/04/12 11:08:29;;;;;;;9.15;2.70;;;;;;;;;;5057532;28;20033;-66
2023/04/12 11:11:02;;;;;;;10.15;2.72;;;;;;;;;;5060516;28;20036;-66
2023/04/12 11:13:29;;;;;;;10.88;2.70;;;;;;;;;;5059950;28;20238;-67
2023/04/12 11:15:56;;;;;;;15.98;3.03;;;11.80;99.90;;;;;;5063051;28;20064;-68
2023/04/12 11:18:22;;;;;;;10.55;2.90;;;11.70;99.90;;;;;;5068164;28;20048;-67
2023/04/12 11:20:49;;;;;;;10.10;3.10;;;12.20;99.90;;;;;;5068134;28;20035;-67
2023/04/12 11:23:16;;;;;;;14.35;3.22;;;11.80;99.90;;;;;;5065161;28;20044;-67
2023/04/12 11:25:43;;;;;;;12.32;3.88;;;;;;;;;;5067701;28;20064;-67
2023/04/12 11:28:09;;;;;;;12.27;2.92;;;;;;;;;;5047701;28;20134;-66
2023/04/12 11:30:35;;;;;;;9.70;3.05;;;11.60;99.90;;;;;;5068263;28;20033;-67
2023/04/12 11:33:01;;;;;;;14.25;2.95;;;;;;;;;;5066682;28;20044;-65
2023/04/12 11:35:29;;;;;;;17.23;3.40;;;12.20;99.90;;;;;;5055631;28;20049;-68
2023/04/12 11:37:58;;;;;;;12.65;3.05;;;;;;;;;;5066176;28;20612;-66
2023/04/12 11:40:24;;;;;;;11.13;2.83;;;;;;;;;;5060229;28;20106;-66
2023/04/12 11:42:50;;;;;;;15.18;3.60;;;12.30;99.90;;;;;;5066485;28;20053;-67
2023/04/12 11:45:20;;;;;;;8.02;2.25;;;12.30;99.90;;;;;;5062634;28;20041;-67
2023/04/12 11:47:46;;;;;;;15.52;3.20;;;12.20;99.90;;;;;;5066134;28;20040;-67
2023/04/12 11:50:11;;;;;;;13.55;3.45;;;12.40;99.90;;;;;;5069100;28;20047;-67
2023/04/12 11:52:37;;;;;;;9.57;2.30;;;12.50;99.90;;;;;;5068254;28;20040;-67
2023/04/12 11:55:05;;;;;;;9.88;2.85;;;12.50;99.90;;;;;;5056763;28;20035;-67
2023/04/12 11:57:31;;;;;;;14.73;3.10;;;12.90;99.90;;;;;;5061114;28;20032;-67
2023/04/12 11:59:59;;;;;;;9.85;2.33;;;;;;;;;;5066539;28;20032;-65
2023/04/12 12:02:25;;;;;;;9.80;2.25;;;;;;;;;;5043739;28;20079;-66
2023/04/12 12:04:51;;;;;;;11.32;2.80;;;12.20;99.90;;;;;;5055848;28;20541;-67
2023/04/12 12:07:18;;;;;;;9.60;2.35;;;;;;;;;;5065676;28;20041;-67
2023/04/12 12:09:44;;;;;;;16.08;3.63;;;12.70;99.90;;;;;;5062905;28;20575;-67
2023/04/12 12:12:11;;;;;;;11.98;3.13;;;;;;;;;;5066982;28;20166;-67
2023/04/12 12:14:36;;;;;;;11.75;2.85;;;13.00;99.90;;;;;;5057378;28;20051;-66
2023/04/12 12:17:10;;;;;;;15.50;2.45;;;12.70;99.90;;;;;;5057261;28;20037;-67
2023/04/12 12:19:37;;;;;;;11.77;3.47;;;;;;;;;;5066347;28;20044;-67
2023/04/12 12:22:17;;;;;;;12.27;3.08;;;13.40;99.90;;;;;;5057396;28;20052;-66
2023/04/12 12:24:49;;;;;;;9.73;3.33;;;;;;;;;;5069784;28;20550;-66
2023/04/12 12:27:19;;;;;;;9.80;2.90;;;;;;;;;;5064219;28;20032;-67
2023/04/12 12:29:48;;;;;;;8.93;2.53;;;15.60;99.90;;;;;;5060321;28;20494;-67
2023/04/12 12:32:16;;;;;;;10.07;2.30;;;;;;;;;;5065479;28;20044;-67
2023/04/12 12:34:49;;;;;;;13.35;3.55;;;;;;;;;;5065061;28;20047;-68
2023/04/12 12:37:19;;;;;;;10.50;2.10;;;;;;;;;;5061022;28;20060;-69
2023/04/12 12:40:12;;;;;;;12.75;2.47;;;14.00;99.90;;;;;;5071375;28;20707;-68
2023/04/12 12:42:54;;;;;;;7.40;1.77;;;;;;;;;;5068038;28;20089;-67
2023/04/12 12:45:21;;;;;;;8.07;1.73;;;;;;;;;;5068118;28;20033;-67
2023/04/12 12:47:52;;;;;;;7.93;1.80;;;;;;;;;;5061448;28;20124;-68
2023/04/12 12:50:23;;;;;;;7.78;1.98;;;;;;;;;;5067938;28;20034;-65
2023/04/12 12:52:49;;;;;;;8.80;3.00;;;13.80;99.90;;;;;;5067382;28;20044;-65
2023/04/12 12:55:15;;;;;;;9.80;1.65;;;14.30;99.90;;;;;;5068807;28;20032;-65
2023/04/12 12:57:42;;;;;;;7.93;2.03;;;;;;;;;;5069231;28;20032;-66
2023/04/12 13:00:09;;;;;;;8.90;2.38;;;15.30;99.90;;;;;;5052215;28;20051;-65
2023/04/12 13:02:36;;;;;;;10.35;2.70;;;14.80;99.90;;;;;;5069686;28;20060;-65
2023/04/12 13:05:03;;;;;;;7.75;1.83;;;;;;;;;;5060145;28;20048;-65
2023/04/12 13:07:28;;;;;;;12.20;1.85;;;14.60;99.90;;;;;;5065582;28;20052;-65
2023/04/12 13:09:54;;;;;;;8.70;2.60;;;14.40;99.90;;;;;;5062275;28;20037;-66
2023/04/12 13:12:20;;;;;;;7.95;2.13;;;;;;;;;;5067400;28;20040;-65
2023/04/12 13:14:47;;;;;;;9.80;1.98;;;;;;;;;;5039492;28;20052;-66
2023/04/12 13:17:14;;;;;;;11.43;2.35;;;;;;;;;;5068378;28;20032;-67
2023/04/12 13:19:40;;;;;;;8.18;2.05;;;15.60;99.90;;;;;;5061261;28;20090;-66
2023/04/12 13:22:07;;;;;;;7.22;1.80;;;16.10;99.90;;;;;;5050715;28;20036;-66
2023/04/12 13:24:33;;;;;;;8.18;1.73;;;16.90;99.20;;;;;;5067512;28;20033;-66
2023/04/12 13:26:59;;;;;;;8.18;2.00;;;16.50;98.20;;;;;;5063187;28;20102;-66
2023/04/12 13:29:24;;;;;;;5.85;1.60;;;15.00;98.30;;;;;;5069574;28;20040;-66
2023/04/12 13:31:50;;;;;;;6.38;1.60;;;15.40;99.90;;;;;;5067716;28;20079;-66
2023/04/12 13:34:16;;;;;;;6.18;2.17;;;14.90;99.90;;;;;;5068168;28;20038;-66
2023/04/12 13:36:42;;;;;;;10.68;1.98;;;14.70;99.90;;;;;;5061832;28;20024;-66
2023/04/12 13:39:07;;;;;;;6.53;2.15;;;15.10;99.90;;;;;;5065833;28;20037;-67
2023/04/12 13:41:33;;;;;;;7.55;1.90;;;16.60;96.60;;;;;;5067835;28;20041;-67
2023/04/12 13:43:59;;;;;;;15.02;2.47;;;16.50;99.90;;;;;;5067264;28;20063;-67
2023/04/12 13:46:24;;;;;;;8.80;2.35;;;17.50;92.80;;;;;;5063621;28;20517;-66
2023/04/12 13:48:50;;;;;;;5.82;1.88;;;17.90;90.10;;;;;;5067972;28;20036;-66
2023/04/12 13:51:16;;;;;;;7.28;1.77;;;18.90;66.60;;;;;;5069665;28;20037;-67
2023/04/12 13:53:43;;;;;;;7.18;1.73;;;20.90;58.00;;;;;;5059012;28;20094;-66
2023/04/12 13:56:09;;;;;;;10.13;2.38;;;21.00;55.90;;;;;;5062745;28;20056;-65
2023/04/12 13:58:35;;;;;;;7.68;1.95;;;19.90;38.50;;;;;;5065913;28;20072;-65
2023/04/12 14:01:01;;;;;;;8.45;1.80;;;18.30;29.80;;;;;;5068882;28;20087;-66